Time;durP1;ratioP1;P1;durP2;ratioP2;P2;SDS_P1;SDS_P2;PMS_P1;PMS_P2;Temp;Humidity;BMP_temperature;BMP_pressure;BME280_temperature;BME280_humidity;BME280_pressure;Samples;Min_cycle;Max_cycle;Signal;HPM_P1;HPM_P2
2022/03/31 00:02:25;;;;;;;17.60;8.75;;;;;;;6.68;64.78;100102.25;5017865;28;20042;-81
2022/03/31 00:04:50;;;;;;;14.57;8.15;;;;;;;6.66;64.49;100099.59;5008205;28;20023;-81
2022/03/31 00:07:16;;;;;;;14.15;7.93;;;;;;;6.66;64.25;100094.44;5021014;28;20088;-81
2022/03/31 00:09:41;;;;;;;14.00;7.82;;;;;;;6.64;64.42;100098.69;5011575;28;20045;-81
2022/03/31 00:12:07;;;;;;;16.52;8.65;;;;;;;6.60;65.03;100096.84;5017788;28;20033;-82
2022/03/31 00:14:33;;;;;;;17.75;8.68;;;;;;;6.58;64.92;100095.94;5016828;28;20056;-82
2022/03/31 00:16:58;;;;;;;14.80;8.30;;;;;;;6.55;65.09;100091.56;5022953;28;20102;-82
2022/03/31 00:19:24;;;;;;;15.80;8.40;;;;;;;6.57;64.82;100091.59;5022849;28;20104;-81
2022/03/31 00:32:29;;;;;;;16.23;8.95;;;;;;;6.63;65.03;100109.88;5021129;28;20017;-81
2022/03/31 00:34:54;;;;;;;15.63;8.55;;;;;;;6.59;64.97;100103.75;5017017;28;20093;-81
2022/03/31 00:37:41;;;;;;;16.17;9.07;;;;;;;6.58;64.77;100107.16;5016183;28;20018;-81
2022/03/31 00:40:09;;;;;;;18.40;9.45;;;;;;;6.55;65.19;100101.03;5011561;28;20024;-81
2022/03/31 00:42:42;;;;;;;17.60;9.70;;;;;;;6.56;65.37;100102.78;5017631;28;20025;-81
2022/03/31 00:45:19;;;;;;;17.92;9.25;;;;;;;6.54;65.75;100088.94;5021053;28;20021;-81
2022/03/31 00:47:46;;;;;;;18.33;9.55;;;;;;;6.52;65.91;100094.06;5018983;28;20038;-82
2022/03/31 00:50:13;;;;;;;17.75;10.05;;;;;;;6.51;65.74;100088.84;5031903;28;20016;-81
2022/03/31 00:52:39;;;;;;;21.23;10.50;;;;;;;6.49;65.92;100087.91;5021384;28;20124;-81
2022/03/31 00:55:06;;;;;;;18.92;10.57;;;;;;;6.47;66.04;100094.78;5020288;28;20024;-81
2022/03/31 00:57:34;;;;;;;21.98;10.60;;;;;;;6.44;66.50;100104.22;5020482;28;20085;-82
2022/03/31 00:59:59;;;;;;;20.42;10.88;;;;;;;6.44;66.75;100098.16;5018419;28;20021;-82
2022/03/31 01:02:32;;;;;;;17.90;9.93;;;;;;;6.43;66.86;100099.88;5020549;28;20041;-81
2022/03/31 01:05:00;;;;;;;21.10;10.07;;;;;;;6.43;66.65;100091.19;5020069;28;20060;-81
2022/03/31 01:07:26;;;;;;;21.70;10.77;;;;;;;6.43;66.95;100086.03;5019464;28;20021;-81
2022/03/31 01:09:53;;;;;;;21.40;10.55;;;;;;;6.42;66.43;100095.50;5022304;28;20276;-81
2022/03/31 01:12:19;;;;;;;18.48;9.85;;;;;;;6.42;65.99;100087.75;5021346;28;20030;-81
2022/03/31 01:14:44;;;;;;;20.17;10.30;;;;;;;6.43;66.72;100080.84;5023128;28;20045;-81
2022/03/31 01:17:10;;;;;;;18.42;10.10;;;;;;;6.41;66.68;100082.53;5023848;28;20036;-81
2022/03/31 01:19:36;;;;;;;18.67;10.55;;;;;;;6.36;67.15;100072.06;5011709;28;20021;-81
2022/03/31 01:22:01;;;;;;;19.63;9.45;;;;;;;6.34;67.17;100068.53;5023288;28;20014;-81
2022/03/31 01:24:27;;;;;;;18.55;10.18;;;;;;;6.33;67.42;100071.97;5022207;28;20133;-81
2022/03/31 01:26:53;;;;;;;20.38;10.25;;;;;;;6.34;67.40;100073.72;5019745;28;20089;-76
2022/03/31 01:29:21;;;;;;;19.67;10.20;;;;;;;6.32;66.79;100066.75;5017311;28;20271;-76
2022/03/31 01:31:47;;;;;;;18.63;10.20;;;;;;;6.30;67.30;100071.91;5015426;28;20029;-76
2022/03/31 01:34:12;;;;;;;22.67;11.25;;;;;;;6.30;66.89;100063.25;5022656;28;20017;-76
2022/03/31 01:36:38;;;;;;;22.02;10.95;;;;;;;6.29;67.55;100064.97;5012254;28;20073;-76
2022/03/31 01:39:04;;;;;;;20.85;11.05;;;;;;;6.28;66.98;100065.78;5022180;28;20233;-76
2022/03/31 01:41:30;;;;;;;20.75;10.68;;;;;;;6.26;67.60;100068.34;5019402;28;20142;-76
2022/03/31 01:43:56;;;;;;;20.05;10.55;;;;;;;6.25;68.01;100057.94;5016512;28;20034;-76
2022/03/31 01:46:21;;;;;;;22.02;10.52;;;;;;;6.22;68.23;100060.44;5017480;28;20030;-76
2022/03/31 01:48:47;;;;;;;21.00;10.90;;;;;;;6.18;68.27;100063.78;5021218;28;20036;-76
2022/03/31 01:51:12;;;;;;;21.13;10.90;;;;;;;6.15;68.48;100061.09;5021399;28;20029;-76
2022/03/31 01:53:39;;;;;;;23.55;11.48;;;;;;;6.14;69.09;100056.75;5022539;28;20025;-76
2022/03/31 01:56:06;;;;;;;24.10;11.32;;;;;;;6.16;69.09;100055.09;5012502;28;20292;-76
2022/03/31 01:58:32;;;;;;;25.08;11.68;;;;;;;6.12;69.44;100048.94;5020780;28;20052;-81
2022/03/31 02:00:58;;;;;;;24.33;11.63;;;;;;;6.12;69.82;100042.91;5022855;28;20025;-81
2022/03/31 02:03:24;;;;;;;24.45;11.70;;;;;;;6.07;69.46;100041.06;5022185;28;20021;-81
2022/03/31 02:05:50;;;;;;;22.20;11.32;;;;;;;6.04;69.75;100047.84;5013390;28;20032;-81
2022/03/31 02:08:19;;;;;;;25.08;12.02;;;;;;;6.00;70.49;100041.72;5018388;28;20092;-81
2022/03/31 02:10:45;;;;;;;26.70;12.17;;;;;;;5.97;70.45;100044.22;5017336;28;20030;-81
2022/03/31 02:13:11;;;;;;;26.38;12.18;;;;;;;5.95;70.26;100035.50;5012475;28;20025;-82
2022/03/31 02:15:37;;;;;;;26.60;12.40;;;;;;;5.93;71.63;100038.03;5020052;28;20025;-81
2022/03/31 02:18:03;;;;;;;25.08;11.85;;;;;;;5.91;71.73;100031.09;5024458;28;20112;-81
2022/03/31 02:20:30;;;;;;;24.20;11.65;;;;;;;5.87;72.15;100031.81;5024276;28;20276;-81
2022/03/31 02:22:59;;;;;;;25.67;12.75;;;;;;;5.85;72.36;100034.38;5019632;28;20286;-82
2022/03/31 02:25:25;;;;;;;25.23;12.73;;;;;;;5.84;71.92;100026.56;5017659;28;20024;-81
2022/03/31 02:27:52;;;;;;;25.23;12.63;;;;;;;5.83;71.86;100025.66;5014287;28;20269;-81
2022/03/31 02:30:18;;;;;;;26.50;12.30;;;;;;;5.82;72.27;100025.63;5019207;28;20056;-81
2022/03/31 02:32:43;;;;;;;25.63;11.65;;;;;;;5.80;72.41;100024.72;5020118;28;20172;-82
2022/03/31 02:35:08;;;;;;;23.02;11.85;;;;;;;5.78;72.77;100031.53;5021492;28;20108;-82
2022/03/31 02:37:34;;;;;;;22.48;10.93;;;;;;;5.74;72.90;100018.53;5021671;28;20022;-81
2022/03/31 02:40:00;;;;;;;26.40;11.70;;;;;;;5.71;73.14;100017.56;5022914;28;20022;-81
2022/03/31 02:42:26;;;;;;;23.35;10.95;;;;;;;5.71;73.78;100018.44;5018758;28;20021;-81
2022/03/31 02:44:51;;;;;;;22.50;11.73;;;;;;;5.68;73.29;100013.19;5009645;28;20204;-82
2022/03/31 02:47:16;;;;;;;24.05;11.98;;;;;;;5.66;73.86;100007.09;5022811;28;20148;-82
2022/03/31 02:49:43;;;;;;;21.63;10.77;;;;;;;5.64;74.49;100023.38;5023140;28;20032;-83
2022/03/31 02:52:09;;;;;;;22.65;10.48;;;;;;;5.64;76.11;100023.38;5022653;28;20018;-82
2022/03/31 02:57:18;;;;;;;22.52;10.95;;;;;;;5.54;76.56;100014.47;5023424;28;20244;-76
2022/03/31 02:59:44;;;;;;;24.90;12.07;;;;;;;5.51;76.75;100009.22;5023708;28;20044;-76
2022/03/31 03:02:10;;;;;;;18.85;10.43;;;;;;;5.46;77.32;100003.91;5014285;28;20162;-76
2022/03/31 03:04:35;;;;;;;20.50;11.63;;;;;;;5.42;76.65;100006.31;5017612;28;20021;-76
2022/03/31 03:07:00;;;;;;;24.83;11.60;;;;;;;5.38;76.72;100002.78;5023267;28;20021;-76
2022/03/31 03:09:26;;;;;;;22.00;11.48;;;;;;;5.32;76.76;100007.78;5022858;28;20014;-76
2022/03/31 03:11:51;;;;;;;22.23;12.02;;;;;;;5.28;77.13;100009.38;5022882;28;20021;-76
2022/03/31 03:14:17;;;;;;;21.45;11.60;;;;;;;5.26;77.17;100002.41;5017924;28;20026;-76
2022/03/31 03:16:42;;;;;;;20.13;10.07;;;;;;;5.25;77.28;99998.94;5020861;28;20033;-76
2022/03/31 03:19:07;;;;;;;18.23;9.40;;;;;;;5.21;77.73;99990.25;5015747;28;20276;-76
2022/03/31 03:21:34;;;;;;;18.15;9.32;;;;;;;5.17;77.82;99990.97;5020501;28;20106;-76
2022/03/31 03:24:01;;;;;;;14.70;8.65;;;;;;;5.13;78.28;99996.00;5013901;28;20136;-76
2022/03/31 03:26:27;;;;;;;15.13;8.63;;;;;;;5.10;78.16;99999.34;5021209;28;20024;-82
2022/03/31 03:28:52;;;;;;;14.77;8.25;;;;;;;5.11;78.15;99997.63;5010631;28;20026;-82
2022/03/31 03:31:18;;;;;;;12.10;7.55;;;;;;;5.10;77.70;99999.34;5016469;28;20300;-82
2022/03/31 03:33:43;;;;;;;13.57;7.75;;;;;;;5.05;77.50;100001.78;5017287;28;20029;-83
2022/03/31 03:36:11;;;;;;;13.18;7.55;;;;;;;5.02;77.65;99998.22;5020033;28;20018;-83
2022/03/31 03:38:36;;;;;;;13.18;7.57;;;;;;;4.98;78.14;100005.00;5016946;28;20022;-82
2022/03/31 03:41:02;;;;;;;12.05;7.53;;;;;;;4.92;78.11;99998.75;5019850;28;20084;-82
2022/03/31 03:43:28;;;;;;;12.45;7.43;;;;;;;4.86;77.50;100002.00;5014616;28;20040;-82
2022/03/31 03:45:54;;;;;;;13.38;7.25;;;;;;;4.83;77.81;100007.94;5021739;28;20018;-83
2022/03/31 03:48:22;;;;;;;12.75;7.40;;;;;;;4.79;77.68;100002.63;5017606;28;20038;-83
2022/03/31 03:50:48;;;;;;;12.63;7.07;;;;;;;4.76;77.87;100002.53;5014532;28;20097;-83
2022/03/31 03:53:13;;;;;;;11.82;6.80;;;;;;;4.66;77.56;100003.91;5018873;28;20229;-82
2022/03/31 03:55:39;;;;;;;9.88;6.28;;;;;;;4.61;77.94;100013.22;5019143;28;20288;-82
2022/03/31 03:58:04;;;;;;;9.40;5.85;;;;;;;4.56;77.58;100014.75;5019954;28;20036;-82
2022/03/31 04:00:30;;;;;;;8.98;5.68;;;;;;;4.49;77.65;100009.38;5020313;28;20010;-82
2022/03/31 04:02:55;;;;;;;9.68;5.90;;;;;;;4.45;77.45;100007.53;5025247;28;20021;-82
2022/03/31 04:05:21;;;;;;;9.52;5.90;;;;;;;4.41;77.28;100004.78;5021280;28;20085;-82
2022/03/31 04:07:47;;;;;;;9.68;5.72;;;;;;;4.37;77.50;100003.78;5019393;28;20014;-82
2022/03/31 04:10:13;;;;;;;10.48;5.95;;;;;;;4.35;77.76;100008.03;5020348;28;20056;-82
2022/03/31 04:12:39;;;;;;;9.02;5.28;;;;;;;4.28;77.44;100004.34;5014846;28;20030;-82
2022/03/31 04:15:06;;;;;;;10.50;6.00;;;;;;;4.21;77.49;100004.94;5013526;28;20134;-82
2022/03/31 04:17:32;;;;;;;10.18;5.85;;;;;;;4.17;78.06;100006.56;5018231;28;20056;-82
2022/03/31 04:19:57;;;;;;;8.75;5.28;;;;;;;4.16;78.30;100009.09;5020190;28;20021;-83
2022/03/31 04:22:22;;;;;;;11.07;5.50;;;;;;;4.10;78.46;100008.84;5017827;28;20032;-83
2022/03/31 04:24:48;;;;;;;13.20;5.82;;;;;;;4.09;78.42;100007.09;5020989;28;20030;-82
2022/03/31 04:27:13;;;;;;;9.20;5.28;;;;;;;4.06;78.75;100012.16;5022738;28;20021;-76
2022/03/31 04:29:39;;;;;;;9.18;5.05;;;;;;;4.04;78.60;100011.19;5016193;28;20969;-76
2022/03/31 04:32:05;;;;;;;7.78;4.88;;;;;;;3.95;78.84;100009.16;5020778;28;20041;-76
2022/03/31 04:34:30;;;;;;;8.25;5.15;;;;;;;3.92;79.18;100009.94;5021132;28;20040;-76
2022/03/31 04:36:55;;;;;;;7.50;4.68;;;;;;;3.86;79.14;100007.13;5018755;28;20044;-76
2022/03/31 04:39:21;;;;;;;7.53;4.38;;;;;;;3.79;79.27;100005.16;5020221;28;20029;-76
2022/03/31 04:41:46;;;;;;;7.25;4.38;;;;;;;3.74;78.96;100004.13;5019761;28;20017;-76
2022/03/31 04:44:11;;;;;;;6.28;4.05;;;;;;;3.71;80.14;100009.13;5016895;28;20107;-76
2022/03/31 04:46:37;;;;;;;7.40;4.50;;;;;;;3.70;79.48;100012.53;5017116;28;20062;-76
2022/03/31 04:49:03;;;;;;;6.22;3.70;;;;;;;3.69;79.74;100010.78;5015337;28;20081;-76
2022/03/31 04:51:29;;;;;;;6.35;3.63;;;;;;;3.63;79.75;100006.28;5021615;28;20052;-76
2022/03/31 04:53:54;;;;;;;6.90;3.45;;;;;;;3.58;79.99;100013.81;5017577;28;20038;-76
2022/03/31 04:56:20;;;;;;;6.75;3.83;;;;;;;3.56;79.52;100007.72;5017091;28;20045;-83
2022/03/31 04:58:45;;;;;;;7.60;4.25;;;;;;;3.52;80.34;100015.28;5020240;28;20018;-83
2022/03/31 05:01:11;;;;;;;6.03;3.42;;;;;;;3.46;80.77;100019.38;5023251;28;20045;-83
2022/03/31 05:03:37;;;;;;;8.20;3.97;;;;;;;3.44;79.76;100018.44;5018586;28;20176;-82
2022/03/31 05:06:04;;;;;;;6.18;3.60;;;;;;;3.43;80.88;100021.84;5024482;28;21044;-82
2022/03/31 05:08:29;;;;;;;6.50;3.83;;;;;;;3.44;80.91;100020.16;5022762;28;20013;-83
2022/03/31 05:10:55;;;;;;;6.95;3.80;;;;;;;3.45;80.68;100015.06;5021711;28;20033;-83
2022/03/31 05:13:20;;;;;;;6.93;3.83;;;;;;;3.44;80.85;100015.84;5015938;28;20017;-83
2022/03/31 05:15:46;;;;;;;5.97;3.95;;;;;;;3.43;81.11;100013.22;5024506;28;20041;-83
2022/03/31 05:18:11;;;;;;;6.13;3.88;;;;;;;3.41;80.95;100013.16;5016746;28;20060;-83
2022/03/31 05:20:36;;;;;;;9.35;4.10;;;;;;;3.42;81.29;100021.78;5017650;28;20140;-82
2022/03/31 05:23:02;;;;;;;6.72;3.97;;;;;;;3.41;80.68;100014.88;5023127;28;20021;-83
2022/03/31 05:25:27;;;;;;;7.10;3.90;;;;;;;3.40;80.43;100020.84;5020595;28;20158;-83
2022/03/31 05:27:52;;;;;;;7.07;3.50;;;;;;;3.38;80.48;100019.91;5020522;28;20049;-83
2022/03/31 05:30:19;;;;;;;6.60;3.50;;;;;;;3.33;79.70;100019.72;5015718;28;20038;-83
2022/03/31 05:32:45;;;;;;;6.78;3.55;;;;;;;3.29;79.70;100015.28;5014853;28;20025;-83
2022/03/31 05:35:13;;;;;;;6.25;3.45;;;;;;;3.23;80.07;100021.06;5022090;28;20018;-83
2022/03/31 05:37:39;;;;;;;5.63;3.05;;;;;;;3.17;79.72;100014.78;5025339;28;20022;-82
2022/03/31 05:40:07;;;;;;;6.47;3.28;;;;;;;3.14;79.74;100025.81;5020892;28;20045;-82
2022/03/31 05:42:34;;;;;;;5.22;3.08;;;;;;;3.03;79.24;100022.84;5017534;28;20033;-82
2022/03/31 05:45:00;;;;;;;6.13;3.13;;;;;;;2.94;79.91;100023.34;5023793;28;20051;-82
2022/03/31 05:47:26;;;;;;;5.53;2.70;;;;;;;2.88;79.77;100027.34;5019097;28;20006;-82
2022/03/31 05:49:52;;;;;;;6.25;3.10;;;;;;;2.84;80.00;100033.16;5035591;28;20069;-82
2022/03/31 05:52:17;;;;;;;5.45;3.17;;;;;;;2.78;80.08;100034.69;5021133;28;20083;-81
2022/03/31 05:54:43;;;;;;;5.45;2.97;;;;;;;2.75;80.48;100032.00;5017389;28;20029;-80
2022/03/31 05:57:08;;;;;;;5.47;3.20;;;;;;;2.70;80.30;100033.47;5014186;28;20053;-80
2022/03/31 05:59:34;;;;;;;5.10;3.00;;;;;;;2.64;80.22;100029.78;5017733;28;20022;-81
2022/03/31 06:01:59;;;;;;;6.03;3.25;;;;;;;2.56;80.90;100025.19;5021575;28;20088;-80
2022/03/31 06:04:24;;;;;;;6.05;3.03;;;;;;;2.49;80.76;100028.31;5016991;28;20029;-80
2022/03/31 06:06:50;;;;;;;5.30;2.83;;;;;;;2.43;80.99;100022.91;5021241;28;20069;-80
2022/03/31 06:09:15;;;;;;;5.15;2.85;;;;;;;2.39;81.32;100023.56;5020542;28;20052;-79
2022/03/31 06:11:42;;;;;;;5.60;2.70;;;;;;;2.34;81.45;100012.22;5023755;28;20260;-79
2022/03/31 06:14:08;;;;;;;5.28;2.80;;;;;;;2.35;81.88;100014.00;5014392;28;20045;-79
2022/03/31 06:16:34;;;;;;;5.30;2.88;;;;;;;2.30;81.10;100015.47;5023355;28;20033;-79
2022/03/31 06:18:59;;;;;;;6.95;3.20;;;;;;;2.28;81.55;100014.53;5015040;28;20068;-79
2022/03/31 06:21:24;;;;;;;5.63;2.70;;;;;;;2.24;82.01;100016.94;5024369;28;20260;-80
2022/03/31 06:23:50;;;;;;;5.97;2.75;;;;;;;2.26;82.83;100025.63;5017709;28;20160;-80
2022/03/31 06:26:15;;;;;;;5.05;2.85;;;;;;;2.23;82.66;100019.47;5021795;28;20069;-80
2022/03/31 06:28:41;;;;;;;4.75;2.83;;;;;;;2.26;83.34;100029.91;5019883;28;20021;-80
2022/03/31 06:31:06;;;;;;;5.28;3.05;;;;;;;2.28;83.20;100027.41;5022674;28;20017;-79
2022/03/31 06:33:32;;;;;;;5.22;2.78;;;;;;;2.31;83.38;100025.81;5010936;28;20030;-81
2022/03/31 06:35:57;;;;;;;5.30;2.80;;;;;;;2.35;83.29;100035.44;5019362;28;20856;-81
2022/03/31 06:38:22;;;;;;;5.47;3.05;;;;;;;2.38;83.09;100038.13;5023406;28;20315;-81
2022/03/31 06:43:32;;;;;;;6.65;3.00;;;;;;;2.41;83.33;100033.13;5017482;28;20036;-81
2022/03/31 06:45:58;;;;;;;5.75;3.55;;;;;;;2.39;83.16;100036.44;5020517;28;20032;-80
2022/03/31 06:48:25;;;;;;;5.50;3.30;;;;;;;2.38;83.20;100037.25;5012652;28;20265;-81
2022/03/31 06:50:51;;;;;;;7.18;3.92;;;;;;;2.39;83.60;100031.28;5015685;28;20125;-81
2022/03/31 06:53:16;;;;;;;7.53;3.92;;;;;;;2.37;83.82;100032.94;5020066;28;20272;-81
2022/03/31 06:55:42;;;;;;;6.35;3.63;;;;;;;2.34;83.36;100033.66;5020721;28;20088;-81
2022/03/31 06:58:08;;;;;;;6.82;3.75;;;;;;;2.34;83.68;100036.22;5020286;28;20284;-80
2022/03/31 07:00:33;;;;;;;7.18;4.30;;;;;;;2.34;83.98;100035.38;5014071;28;20014;-81
2022/03/31 07:02:59;;;;;;;7.00;3.80;;;;;;;2.37;84.13;100035.50;5009951;28;20067;-81
2022/03/31 07:05:25;;;;;;;6.65;3.80;;;;;;;2.41;83.87;100037.38;5023472;28;20267;-81
2022/03/31 07:07:50;;;;;;;6.90;3.75;;;;;;;2.44;84.00;100034.94;5013214;28;20018;-81
2022/03/31 07:10:15;;;;;;;7.68;4.15;;;;;;;2.47;83.84;100035.06;5018936;28;20018;-81
2022/03/31 07:12:40;;;;;;;7.18;4.13;;;;;;;2.49;83.50;100032.56;5018068;28;20029;-81
2022/03/31 07:15:07;;;;;;;6.55;4.00;;;;;;;2.47;84.01;100031.63;5020298;28;20265;-80
2022/03/31 07:17:32;;;;;;;8.27;4.32;;;;;;;2.48;83.92;100025.66;5020566;28;20087;-80
2022/03/31 07:19:58;;;;;;;8.13;4.63;;;;;;;2.49;84.61;100028.31;5020564;28;20292;-81
2022/03/31 07:22:23;;;;;;;8.55;4.70;;;;;;;2.49;84.39;100025.75;5018561;28;20021;-80
2022/03/31 07:24:48;;;;;;;6.85;4.25;;;;;;;2.52;84.00;100022.41;5020216;28;20026;-81
2022/03/31 07:27:15;;;;;;;7.63;4.60;;;;;;;2.55;84.04;100023.44;5021885;28;20017;-81
2022/03/31 07:29:41;;;;;;;7.57;4.40;;;;;;;2.55;84.19;100022.53;5014147;28;20022;-81
2022/03/31 07:32:06;;;;;;;8.40;4.93;;;;;;;2.53;84.27;100021.59;5016268;28;20010;-80
2022/03/31 07:34:32;;;;;;;8.48;4.85;;;;;;;2.53;84.94;100027.63;5020059;28;20216;-80
2022/03/31 07:36:59;;;;;;;10.90;5.35;;;;;;;2.55;85.08;100033.72;5022348;28;20026;-80
2022/03/31 07:39:25;;;;;;;8.77;5.07;;;;;;;2.55;84.59;100028.56;5022043;28;20034;-80
2022/03/31 07:41:50;;;;;;;9.60;5.18;;;;;;;2.60;85.46;100031.34;5023672;28;20080;-79
2022/03/31 07:44:15;;;;;;;9.95;5.65;;;;;;;2.61;85.10;100030.53;5023120;28;20080;-79
2022/03/31 07:46:41;;;;;;;9.70;5.10;;;;;;;2.66;85.13;100035.88;5023461;28;20059;-79
2022/03/31 07:49:06;;;;;;;8.43;4.95;;;;;;;2.65;85.03;100029.84;5022769;28;20033;-79
2022/03/31 07:51:32;;;;;;;8.65;5.13;;;;;;;2.67;85.43;100035.06;5022934;28;20022;-80
2022/03/31 07:53:57;;;;;;;10.85;5.25;;;;;;;2.71;85.03;100034.34;5022199;28;20018;-80
2022/03/31 07:56:22;;;;;;;9.73;5.63;;;;;;;2.72;85.43;100025.81;5023466;28;20010;-81
2022/03/31 07:58:48;;;;;;;10.32;5.05;;;;;;;2.72;84.44;100028.41;5023512;28;20216;-81
2022/03/31 08:01:13;;;;;;;9.25;5.20;;;;;;;2.75;84.65;100033.66;5022217;28;20260;-81
2022/03/31 08:03:38;;;;;;;8.10;4.95;;;;;;;2.75;84.50;100023.38;5018949;28;20136;-81
2022/03/31 08:06:04;;;;;;;8.32;4.85;;;;;;;2.73;84.43;100028.47;5022943;28;20194;-82
2022/03/31 08:08:29;;;;;;;8.00;5.07;;;;;;;2.74;85.08;100029.34;5022999;28;20026;-81
2022/03/31 08:10:55;;;;;;;8.38;4.95;;;;;;;2.74;85.38;100022.50;5023208;28;20353;-81
2022/03/31 08:13:28;;;;;;;9.80;4.93;;;;;;;2.77;86.53;100029.47;5017803;28;20045;-81
2022/03/31 08:15:53;;;;;;;8.77;5.15;;;;;;;2.78;85.62;100023.50;5023146;28;20113;-81
2022/03/31 08:18:22;;;;;;;8.25;4.50;;;;;;;2.80;85.26;100024.47;5023287;28;20232;-81
2022/03/31 08:20:48;;;;;;;9.07;5.10;;;;;;;2.83;85.92;100023.72;5023336;28;20049;-81
2022/03/31 08:23:13;;;;;;;8.23;4.63;;;;;;;2.87;85.74;100016.19;5021911;28;20014;-81
2022/03/31 08:25:41;;;;;;;8.90;4.88;;;;;;;2.88;85.59;100011.91;5023918;28;20017;-81
2022/03/31 08:28:07;;;;;;;8.25;5.07;;;;;;;2.91;86.36;100020.66;5021799;28;20152;-82
2022/03/31 08:30:33;;;;;;;7.13;4.38;;;;;;;2.95;86.79;100019.97;5010871;28;20071;-81
2022/03/31 08:32:58;;;;;;;8.45;4.97;;;;;;;2.96;86.48;100021.69;5023583;28;20030;-81
2022/03/31 08:35:27;;;;;;;8.88;4.80;;;;;;;3.01;85.91;100028.72;5023660;28;20028;-81
2022/03/31 08:37:52;;;;;;;8.37;4.70;;;;;;;3.03;85.76;100021.97;5032589;28;20180;-80
2022/03/31 08:40:17;;;;;;;10.20;4.93;;;;;;;3.06;86.74;100017.81;5020579;28;20049;-81
2022/03/31 08:42:43;;;;;;;9.55;5.05;;;;;;;3.10;86.11;100016.22;5023681;28;20049;-80
2022/03/31 08:45:12;;;;;;;9.05;5.38;;;;;;;3.12;85.98;100018.03;5013867;28;20024;-80
2022/03/31 08:47:39;;;;;;;9.50;5.80;;;;;;;3.17;86.47;100012.22;5016913;28;20010;-81
2022/03/31 08:50:05;;;;;;;10.90;5.75;;;;;;;3.19;85.71;100016.59;5022670;28;20030;-81
2022/03/31 08:52:30;;;;;;;8.63;5.40;;;;;;;3.22;86.56;100021.88;5022270;28;20032;-81
2022/03/31 08:54:56;;;;;;;10.65;5.63;;;;;;;3.23;85.91;100026.22;5020374;28;20287;-81
2022/03/31 08:57:21;;;;;;;10.05;5.80;;;;;;;3.24;86.24;100027.94;5022784;28;20021;-80
2022/03/31 08:59:47;;;;;;;11.43;6.03;;;;;;;3.27;85.75;100032.34;5022808;28;20144;-81
2022/03/31 09:02:26;;;;;;;9.98;6.15;;;;;;;3.29;85.59;100036.75;5022065;28;20085;-81
2022/03/31 09:05:11;;;;;;;11.23;6.50;;;;;;;3.35;86.46;100027.53;5021713;28;20227;-81
2022/03/31 09:08:00;;;;;;;11.57;5.70;;;;;;;3.40;86.55;100026.00;5023529;28;20013;-76
2022/03/31 09:10:37;;;;;;;11.02;5.78;;;;;;;3.46;86.10;100032.28;5014939;28;20285;-76
2022/03/31 09:13:05;;;;;;;11.18;6.25;;;;;;;3.50;86.63;100033.25;5022506;28;20061;-76
2022/03/31 09:15:31;;;;;;;10.13;6.20;;;;;;;3.54;85.58;100042.00;5021417;28;20165;-76
2022/03/31 09:17:58;;;;;;;10.57;5.90;;;;;;;3.60;85.33;100032.78;5010690;28;20080;-75
2022/03/31 09:20:35;;;;;;;11.38;6.15;;;;;;;3.65;85.26;100032.97;5022446;28;20283;-80
2022/03/31 09:23:00;;;;;;;12.82;6.70;;;;;;;3.69;85.27;100031.38;5022807;28;20315;-76
2022/03/31 09:25:27;;;;;;;11.55;6.78;;;;;;;3.73;84.81;100033.28;5023365;28;20034;-75
2022/03/31 09:27:53;;;;;;;11.93;6.72;;;;;;;3.73;85.24;100033.28;5019996;28;20021;-75
2022/03/31 09:30:19;;;;;;;15.15;6.55;;;;;;;3.78;84.92;100031.72;5022669;28;20203;-76
2022/03/31 09:32:52;;;;;;;13.10;6.57;;;;;;;3.76;85.13;100038.53;5020442;28;20145;-76
2022/03/31 09:35:23;;;;;;;12.60;6.72;;;;;;;3.75;85.37;100034.19;5016570;28;20018;-76
2022/03/31 09:37:49;;;;;;;11.60;6.38;;;;;;;3.75;83.96;100040.25;5024297;28;20152;-79
2022/03/31 09:40:19;;;;;;;12.43;6.60;;;;;;;3.74;84.54;100038.47;5011794;28;20020;-79
2022/03/31 09:42:59;;;;;;;14.52;7.18;;;;;;;3.77;84.65;100040.31;5023899;28;20017;-79
2022/03/31 09:45:24;;;;;;;13.63;7.28;;;;;;;3.77;85.24;100038.59;5012363;28;20033;-79
2022/03/31 09:47:51;;;;;;;13.63;7.15;;;;;;;3.78;85.24;100032.63;5026563;28;20018;-79
2022/03/31 09:50:18;;;;;;;13.20;6.95;;;;;;;3.78;84.93;100030.03;5021965;28;20029;-78
2022/03/31 09:52:44;;;;;;;13.98;7.60;;;;;;;3.80;85.42;100035.25;5024565;28;20157;-78
2022/03/31 09:55:10;;;;;;;13.07;7.60;;;;;;;3.82;85.33;100026.78;5019150;28;20090;-79
2022/03/31 09:57:40;;;;;;;13.10;7.40;;;;;;;3.86;85.08;100029.47;5017525;28;20021;-79
2022/03/31 10:00:06;;;;;;;14.38;7.18;;;;;;;3.88;85.49;100031.28;5024348;28;20025;-79
2022/03/31 10:02:35;;;;;;;13.98;7.68;;;;;;;3.90;85.21;100036.50;5025512;28;20049;-79
2022/03/31 10:05:00;;;;;;;13.30;7.55;;;;;;;3.90;84.83;100037.34;5025800;28;20051;-79
2022/03/31 10:07:26;;;;;;;14.07;8.00;;;;;;;3.93;84.94;100040.03;5025012;28;20269;-79
2022/03/31 10:09:52;;;;;;;14.35;7.90;;;;;;;3.92;84.32;100040.84;5030242;28;20025;-79
2022/03/31 10:12:28;;;;;;;12.40;6.90;;;;;;;3.91;84.37;100030.50;5024060;28;20097;-79
2022/03/31 10:15:02;;;;;;;14.30;7.65;;;;;;;3.89;84.64;100025.28;5024365;28;20101;-79
2022/03/31 10:17:29;;;;;;;13.95;8.32;;;;;;;3.90;84.70;100016.75;5022994;28;20304;-79
2022/03/31 10:20:07;;;;;;;15.60;7.88;;;;;;;3.94;84.61;100021.19;5022814;28;20026;-79
2022/03/31 10:25:16;;;;;;;15.15;8.10;;;;;;;4.00;84.50;100028.28;5024998;28;20037;-79
2022/03/31 10:27:47;;;;;;;16.75;8.10;;;;;;;4.02;85.05;100030.91;5020905;28;20010;-79
2022/03/31 10:30:16;;;;;;;16.27;8.23;;;;;;;4.07;85.65;100030.25;5015322;28;20034;-79
2022/03/31 10:33:05;;;;;;;18.02;8.88;;;;;;;4.14;85.97;100032.22;5021904;28;20025;-79
2022/03/31 10:35:32;;;;;;;16.13;8.20;;;;;;;4.18;84.19;100033.22;5024207;28;20022;-79
2022/03/31 10:38:10;;;;;;;15.07;8.27;;;;;;;4.20;84.52;100031.56;5024231;28;20018;-79
2022/03/31 10:40:38;;;;;;;16.00;8.40;;;;;;;4.23;84.65;100026.53;5022102;28;20018;-79
2022/03/31 10:43:05;;;;;;;18.48;9.27;;;;;;;4.26;85.47;100030.91;5031323;28;20020;-79
2022/03/31 10:45:39;;;;;;;21.60;9.77;;;;;;;4.29;84.85;100026.75;5016966;28;20025;-79
2022/03/31 10:48:23;;;;;;;16.55;8.98;;;;;;;4.32;84.54;100026.84;5024744;28;20025;-79
2022/03/31 10:51:07;;;;;;;19.25;9.70;;;;;;;4.32;84.65;100020.81;5022311;28;20032;-79
2022/03/31 10:53:35;;;;;;;18.10;9.38;;;;;;;4.36;85.05;100027.84;5020508;28;20022;-79
2022/03/31 10:56:02;;;;;;;17.42;8.95;;;;;;;4.38;84.45;100021.03;5014009;28;20270;-79
2022/03/31 10:58:30;;;;;;;18.45;9.10;;;;;;;4.42;83.78;100022.91;5024486;28;20041;-79
2022/03/31 11:00:58;;;;;;;18.95;9.27;;;;;;;4.45;84.10;100019.56;5020820;28;20017;-79
2022/03/31 11:03:24;;;;;;;19.90;10.15;;;;;;;4.49;85.26;100019.72;5024401;28;20128;-79
2022/03/31 11:05:50;;;;;;;18.98;9.57;;;;;;;4.50;83.97;100020.56;5024122;28;20026;-79
2022/03/31 11:08:17;;;;;;;18.08;9.48;;;;;;;4.48;83.18;100007.63;5024496;28;20221;-79
2022/03/31 11:10:49;;;;;;;19.05;9.45;;;;;;;4.48;83.56;100014.50;5023724;28;20029;-79
2022/03/31 11:13:16;;;;;;;19.50;9.15;;;;;;;4.49;84.21;100018.81;5022493;28;20424;-79
2022/03/31 11:15:44;;;;;;;19.42;9.75;;;;;;;4.53;84.59;100019.00;5024485;28;20025;-78
2022/03/31 11:18:10;;;;;;;19.55;9.18;;;;;;;4.59;85.11;100014.84;5024281;28;20028;-79
2022/03/31 11:20:35;;;;;;;17.05;9.10;;;;;;;4.62;84.88;100017.53;5021532;28;20986;-79
2022/03/31 11:23:06;;;;;;;17.63;9.52;;;;;;;4.65;84.42;100012.47;5016928;28;20018;-79
2022/03/31 11:25:31;;;;;;;15.90;8.93;;;;;;;4.63;82.76;100001.22;5020328;28;20085;-78
2022/03/31 11:27:59;;;;;;;14.98;8.50;;;;;;;4.64;83.98;99998.72;5011843;28;20010;-78
2022/03/31 11:30:32;;;;;;;17.58;8.35;;;;;;;4.68;84.89;99998.00;5023649;28;20019;-78
2022/03/31 11:32:58;;;;;;;13.65;8.18;;;;;;;4.75;84.39;99995.59;5015887;28;20025;-78
2022/03/31 11:35:25;;;;;;;15.73;9.38;;;;;;;4.81;84.99;99991.53;5022475;28;20077;-78
2022/03/31 11:38:00;;;;;;;14.75;8.60;;;;;;;4.87;85.50;99996.88;5015088;28;20257;-78
2022/03/31 11:40:34;;;;;;;13.13;8.10;;;;;;;4.92;85.23;99989.28;5015373;28;20034;-78
2022/03/31 11:43:02;;;;;;;12.90;7.70;;;;;;;4.94;84.14;99986.75;5013040;28;20013;-78
2022/03/31 11:45:43;;;;;;;13.07;7.70;;;;;;;4.97;84.04;99981.72;5014449;28;20137;-79